createdAt,value
2023-05-10T00:01:45.724Z,100.00
2023-05-10T00:04:13.518Z,100.00
2023-05-10T00:06:41.267Z,100.00
2023-05-10T00:09:08.927Z,100.00
2023-05-10T00:11:36.548Z,100.00
2023-05-10T00:14:05.668Z,100.00
2023-05-10T00:16:33.428Z,100.00
2023-05-10T00:19:01.086Z,100.00
2023-05-10T00:21:29.301Z,100.00
2023-05-10T00:23:56.975Z,100.00
2023-05-10T00:26:24.588Z,100.00
2023-05-10T00:28:52.205Z,100.00
2023-05-10T00:31:21.257Z,100.00
2023-05-10T00:33:48.805Z,100.00
2023-05-10T00:36:16.472Z,100.00
2023-05-10T00:38:44.073Z,100.00
2023-05-10T00:41:11.685Z,100.00
2023-05-10T00:43:39.286Z,100.00
2023-05-10T00:46:07.356Z,100.00
2023-05-10T00:48:36.543Z,100.00
2023-05-10T00:51:04.606Z,100.00
2023-05-10T00:53:33.380Z,100.00
2023-05-10T00:56:01.065Z,100.00
2023-05-10T00:58:29.891Z,100.00
2023-05-10T01:00:58.098Z,100.00
2023-05-10T01:03:25.880Z,100.00
2023-05-10T01:05:54.905Z,100.00
2023-05-10T01:08:22.709Z,100.00
2023-05-10T01:10:51.012Z,100.00
2023-05-10T01:13:33.868Z,100.00
2023-05-10T01:16:03.416Z,100.00
2023-05-10T01:18:31.890Z,100.00
2023-05-10T01:21:07.246Z,100.00
2023-05-10T01:24:05.662Z,100.00
2023-05-10T01:26:59.330Z,100.00
2023-05-10T01:29:41.484Z,100.00
2023-05-10T01:32:23.539Z,100.00
2023-05-10T01:34:57.338Z,100.00
2023-05-10T01:37:31.374Z,100.00
2023-05-10T01:40:03.432Z,100.00
2023-05-10T01:42:36.877Z,100.00
2023-05-10T01:45:11.048Z,100.00
2023-05-10T01:47:43.015Z,100.00
2023-05-10T01:50:14.493Z,100.00
2023-05-10T01:52:44.814Z,100.00
2023-05-10T01:55:16.115Z,100.00
2023-05-10T01:57:45.883Z,100.00
2023-05-10T02:00:14.652Z,100.00
2023-05-10T02:02:48.162Z,100.00
2023-05-10T02:05:16.920Z,100.00
2023-05-10T02:07:45.764Z,100.00
2023-05-10T02:10:14.409Z,100.00
2023-05-10T02:12:44.135Z,100.00
2023-05-10T02:15:14.107Z,100.00
2023-05-10T02:17:42.345Z,100.00
2023-05-10T02:20:12.669Z,100.00
2023-05-10T02:22:41.454Z,100.00
2023-05-10T02:25:10.768Z,100.00
2023-05-10T02:27:38.951Z,100.00
2023-05-10T02:30:08.411Z,100.00
2023-05-10T02:32:36.602Z,100.00
2023-05-10T02:35:05.141Z,100.00
2023-05-10T02:37:35.461Z,100.00
2023-05-10T02:40:04.589Z,100.00
2023-05-10T02:42:35.371Z,100.00
2023-05-10T02:45:04.551Z,100.00
2023-05-10T02:47:32.352Z,100.00
2023-05-10T02:50:00.443Z,100.00
2023-05-10T02:52:30.368Z,100.00
2023-05-10T02:55:03.283Z,100.00
2023-05-10T02:57:34.794Z,100.00
2023-05-10T03:00:03.741Z,100.00
2023-05-10T03:02:31.961Z,100.00
2023-05-10T03:04:59.768Z,100.00
2023-05-10T03:07:27.583Z,100.00
2023-05-10T03:09:55.191Z,100.00
2023-05-10T03:12:33.668Z,100.00
2023-05-10T03:15:06.149Z,100.00
2023-05-10T03:17:42.035Z,100.00
2023-05-10T03:20:12.660Z,100.00
2023-05-10T03:22:43.399Z,100.00
2023-05-10T03:25:12.979Z,100.00
2023-05-10T03:27:43.746Z,100.00
2023-05-10T03:30:13.371Z,100.00
2023-05-10T03:32:41.072Z,100.00
2023-05-10T03:35:09.673Z,100.00
2023-05-10T03:37:37.389Z,100.00
2023-05-10T03:40:06.042Z,100.00
2023-05-10T03:42:33.666Z,100.00
2023-05-10T03:45:02.691Z,100.00
2023-05-10T03:47:30.786Z,100.00
2023-05-10T03:49:58.520Z,100.00
2023-05-10T03:52:26.253Z,100.00
2023-05-10T03:54:53.870Z,100.00
2023-05-10T03:57:21.615Z,100.00
2023-05-10T03:59:49.242Z,100.00
2023-05-10T04:02:18.223Z,100.00
2023-05-10T04:04:45.849Z,100.00
2023-05-10T04:07:13.443Z,100.00
2023-05-10T04:09:41.083Z,100.00
2023-05-10T04:12:10.853Z,100.00
2023-05-10T04:14:38.821Z,100.00
2023-05-10T04:17:06.706Z,100.00
2023-05-10T04:19:35.777Z,100.00
2023-05-10T04:22:04.519Z,100.00
2023-05-10T04:24:32.150Z,100.00
2023-05-10T04:26:59.701Z,100.00
2023-05-10T04:29:27.683Z,100.00
2023-05-10T04:31:55.297Z,100.00
2023-05-10T04:34:23.069Z,100.00
2023-05-10T04:36:52.016Z,100.00
2023-05-10T04:39:19.611Z,100.00
2023-05-10T04:41:47.190Z,100.00
2023-05-10T04:44:14.806Z,100.00
2023-05-10T04:46:42.539Z,100.00
2023-05-10T04:49:10.211Z,100.00
2023-05-10T04:51:37.807Z,100.00
2023-05-10T04:54:07.020Z,100.00
2023-05-10T04:56:34.901Z,100.00
2023-05-10T04:59:02.653Z,100.00
2023-05-10T05:01:30.366Z,100.00
2023-05-10T05:03:58.170Z,100.00
2023-05-10T05:06:28.098Z,100.00
2023-05-10T05:08:55.865Z,100.00
2023-05-10T05:11:24.828Z,100.00
2023-05-10T05:13:52.531Z,100.00
2023-05-10T05:16:20.261Z,100.00
2023-05-10T05:18:47.898Z,100.00
2023-05-10T05:21:16.249Z,100.00
2023-05-10T05:23:44.162Z,100.00
2023-05-10T05:26:12.062Z,100.00
2023-05-10T05:28:41.031Z,100.00
2023-05-10T05:31:10.091Z,100.00
2023-05-10T05:33:37.973Z,100.00
2023-05-10T05:36:06.562Z,100.00
2023-05-10T05:38:34.208Z,100.00
2023-05-10T05:41:01.872Z,100.00
2023-05-10T05:43:29.499Z,100.00
2023-05-10T05:45:59.081Z,100.00
2023-05-10T05:48:26.839Z,100.00
2023-05-10T05:50:56.993Z,100.00
2023-05-10T05:53:24.664Z,100.00
2023-05-10T05:55:56.088Z,100.00
2023-05-10T05:58:23.805Z,100.00
2023-05-10T06:00:51.528Z,100.00
2023-05-10T06:03:20.770Z,100.00
2023-05-10T06:05:48.621Z,100.00
2023-05-10T06:08:16.390Z,100.00
2023-05-10T06:10:44.043Z,100.00
2023-05-10T06:13:11.885Z,100.00
2023-05-10T06:15:39.770Z,100.00
2023-05-10T06:18:07.677Z,100.00
2023-05-10T06:20:36.755Z,100.00
2023-05-10T06:23:04.389Z,100.00
2023-05-10T06:25:31.972Z,100.00
2023-05-10T06:27:59.634Z,100.00
2023-05-10T06:30:29.309Z,100.00
2023-05-10T06:32:57.315Z,100.00
2023-05-10T06:35:25.221Z,100.00
2023-05-10T06:37:54.517Z,100.00
2023-05-10T06:40:22.365Z,100.00
2023-05-10T06:42:50.251Z,100.00
2023-05-10T06:45:18.379Z,100.00
2023-05-10T06:47:46.851Z,100.00
2023-05-10T06:50:14.514Z,100.00
2023-05-10T06:52:42.175Z,100.00
2023-05-10T06:55:11.998Z,100.00
2023-05-10T06:57:39.690Z,100.00
2023-05-10T07:00:10.580Z,100.00
2023-05-10T07:02:38.342Z,100.00
2023-05-10T07:05:06.684Z,100.00
2023-05-10T07:07:34.353Z,100.00
2023-05-10T07:10:01.978Z,100.00
2023-05-10T07:12:31.147Z,100.00
2023-05-10T07:14:58.807Z,100.00
2023-05-10T07:17:26.646Z,100.00
2023-05-10T07:19:54.264Z,100.00
2023-05-10T07:22:21.860Z,100.00
2023-05-10T07:24:49.494Z,100.00
2023-05-10T07:27:17.142Z,100.00
2023-05-10T07:29:46.136Z,100.00
2023-05-10T07:32:13.724Z,100.00
2023-05-10T07:34:41.378Z,100.00
2023-05-10T07:37:08.996Z,100.00
2023-05-10T07:39:36.709Z,100.00
2023-05-10T07:42:04.859Z,100.00
2023-05-10T07:44:32.411Z,100.00
2023-05-10T07:47:01.526Z,100.00
2023-05-10T07:49:29.308Z,100.00
2023-05-10T07:51:56.999Z,100.00
2023-05-10T07:54:24.670Z,100.00
2023-05-10T07:56:53.006Z,100.00
2023-05-10T07:59:21.010Z,100.00
2023-05-10T08:01:48.592Z,100.00
2023-05-10T08:04:17.532Z,100.00
2023-05-10T08:06:45.138Z,100.00
2023-05-10T08:09:12.951Z,100.00
2023-05-10T08:11:40.569Z,100.00
2023-05-10T08:14:08.153Z,100.00
2023-05-10T08:16:36.059Z,100.00
2023-05-10T08:19:03.728Z,100.00
2023-05-10T08:21:33.218Z,100.00
2023-05-10T08:24:00.876Z,100.00
2023-05-10T08:26:28.577Z,100.00
2023-05-10T08:28:56.176Z,100.00
2023-05-10T08:31:23.804Z,100.00
2023-05-10T08:33:52.444Z,100.00
2023-05-10T08:36:22.533Z,100.00
2023-05-10T08:38:52.581Z,100.00
2023-05-10T08:41:22.325Z,100.00
2023-05-10T08:43:50.126Z,100.00
2023-05-10T08:46:19.463Z,100.00
2023-05-10T08:48:48.305Z,100.00
2023-05-10T08:51:19.422Z,100.00
2023-05-10T08:53:47.989Z,96.42
2023-05-10T08:56:18.799Z,97.28
2023-05-10T08:58:46.537Z,100.00
2023-05-10T09:01:15.100Z,98.30
2023-05-10T09:03:43.006Z,96.09
2023-05-10T09:06:10.780Z,96.23
2023-05-10T09:08:38.762Z,100.00
2023-05-10T09:11:06.933Z,100.00
2023-05-10T09:13:37.677Z,98.86
2023-05-10T09:16:13.899Z,99.53
2023-05-10T09:18:50.309Z,100.00
2023-05-10T09:21:17.993Z,100.00
2023-05-10T09:23:48.125Z,96.01
2023-05-10T09:26:16.360Z,94.28
2023-05-10T09:28:55.649Z,91.75
2023-05-10T09:31:23.570Z,97.92
2023-05-10T09:33:51.896Z,93.74
2023-05-10T09:36:19.756Z,91.74
2023-05-10T09:38:48.789Z,89.86
2023-05-10T09:41:21.139Z,89.85
2023-05-10T09:43:48.793Z,93.58
2023-05-10T09:46:18.541Z,97.50
2023-05-10T09:48:47.269Z,100.00
2023-05-10T09:51:21.362Z,96.10
2023-05-10T09:53:51.437Z,100.00
2023-05-10T09:56:38.101Z,97.21
2023-05-10T09:59:05.868Z,99.45
2023-05-10T10:01:35.331Z,98.77
2023-05-10T10:04:05.355Z,92.59
2023-05-10T10:06:37.766Z,96.37
2023-05-10T10:09:05.957Z,92.52
2023-05-10T10:11:33.766Z,92.48
2023-05-10T10:14:01.589Z,90.29
2023-05-10T10:16:29.449Z,96.09
2023-05-10T10:18:58.596Z,93.23
2023-05-10T10:21:26.370Z,99.73
2023-05-10T10:23:54.607Z,96.04
2023-05-10T10:26:22.990Z,95.36
2023-05-10T10:28:54.214Z,94.36
2023-05-10T10:31:30.219Z,95.29
2023-05-10T10:34:08.778Z,96.39
2023-05-10T10:36:42.633Z,100.00
2023-05-10T10:39:13.756Z,100.00
2023-05-10T10:41:44.942Z,100.00
2023-05-10T10:44:28.740Z,100.00
2023-05-10T10:47:06.412Z,100.00
2023-05-10T10:49:39.835Z,100.00
2023-05-10T10:52:29.493Z,100.00
2023-05-10T10:55:02.229Z,100.00
2023-05-10T10:57:31.142Z,100.00
2023-05-10T11:00:37.516Z,100.00
2023-05-10T11:03:08.411Z,100.00
2023-05-10T11:05:42.614Z,100.00
2023-05-10T11:08:12.710Z,100.00
2023-05-10T11:10:41.058Z,100.00
2023-05-10T11:13:09.919Z,100.00
2023-05-10T11:15:38.113Z,100.00
2023-05-10T11:18:21.306Z,100.00
2023-05-10T11:20:54.020Z,100.00
2023-05-10T11:23:22.362Z,100.00
2023-05-10T11:25:51.045Z,100.00
2023-05-10T11:28:19.521Z,100.00
2023-05-10T11:30:47.292Z,100.00
2023-05-10T11:33:18.832Z,100.00
2023-05-10T11:35:46.394Z,100.00
2023-05-10T11:38:15.928Z,100.00
2023-05-10T11:40:43.767Z,100.00
2023-05-10T11:43:12.530Z,100.00
2023-05-10T11:45:40.374Z,100.00
2023-05-10T11:48:08.107Z,100.00
2023-05-10T11:50:35.846Z,100.00
2023-05-10T11:53:03.417Z,100.00
2023-05-10T11:55:35.644Z,100.00
2023-05-10T11:58:03.504Z,100.00
2023-05-10T12:00:31.849Z,100.00
2023-05-10T12:02:59.688Z,100.00
2023-05-10T12:05:27.503Z,100.00
2023-05-10T12:07:55.092Z,100.00
2023-05-10T12:10:28.006Z,100.00
2023-05-10T12:12:58.407Z,100.00
2023-05-10T12:15:26.636Z,100.00
2023-05-10T12:17:54.275Z,100.00
2023-05-10T12:20:23.420Z,100.00
2023-05-10T12:22:53.675Z,100.00
2023-05-10T12:25:22.954Z,100.00
2023-05-10T12:27:52.760Z,100.00
2023-05-10T12:30:26.815Z,100.00
2023-05-10T12:32:54.810Z,100.00
2023-05-10T12:35:24.858Z,100.00
2023-05-10T12:37:52.924Z,100.00
2023-05-10T12:40:21.078Z,100.00
2023-05-10T12:42:49.651Z,100.00
2023-05-10T12:45:17.397Z,100.00
2023-05-10T12:47:46.528Z,100.00
2023-05-10T12:50:14.262Z,100.00
2023-05-10T12:52:42.141Z,100.00
2023-05-10T12:55:10.473Z,100.00
2023-05-10T12:57:38.058Z,100.00
2023-05-10T13:00:07.016Z,100.00
2023-05-10T13:02:34.630Z,100.00
2023-05-10T13:05:03.917Z,100.00
2023-05-10T13:07:31.552Z,100.00
2023-05-10T13:09:59.162Z,100.00
2023-05-10T13:12:26.799Z,100.00
2023-05-10T13:14:54.447Z,100.00
2023-05-10T13:17:22.039Z,100.00
2023-05-10T13:19:49.666Z,100.00
2023-05-10T13:22:25.611Z,100.00
2023-05-10T13:25:00.450Z,100.00
2023-05-10T13:27:28.107Z,100.00
2023-05-10T13:29:55.928Z,100.00
2023-05-10T13:32:23.576Z,100.00
2023-05-10T13:34:51.331Z,100.00
2023-05-10T13:37:20.457Z,100.00
2023-05-10T13:39:48.074Z,100.00
2023-05-10T13:42:15.775Z,100.00
2023-05-10T13:44:43.894Z,100.00
2023-05-10T13:47:12.350Z,100.00
2023-05-10T13:49:40.021Z,100.00
2023-05-10T13:52:08.002Z,100.00
2023-05-10T13:54:37.952Z,100.00
2023-05-10T13:57:05.821Z,100.00
2023-05-10T13:59:33.715Z,100.00
2023-05-10T14:02:03.475Z,100.00
2023-05-10T14:04:31.415Z,100.00
2023-05-10T14:06:59.103Z,100.00
2023-05-10T14:09:26.719Z,100.00
2023-05-10T14:11:56.812Z,100.00
2023-05-10T14:14:24.548Z,100.00
2023-05-10T14:16:52.374Z,100.00
2023-05-10T14:19:20.110Z,100.00
2023-05-10T14:21:47.774Z,100.00
2023-05-10T14:24:15.415Z,100.00
2023-05-10T14:26:43.043Z,100.00
2023-05-10T14:29:12.696Z,100.00
2023-05-10T14:31:40.488Z,100.00
2023-05-10T14:34:08.130Z,100.00
2023-05-10T14:36:35.764Z,100.00
2023-05-10T14:39:03.830Z,100.00
2023-05-10T14:41:31.953Z,100.00
2023-05-10T14:43:59.614Z,100.00
2023-05-10T14:46:28.939Z,100.00
2023-05-10T14:48:56.655Z,100.00
2023-05-10T14:51:24.282Z,100.00
2023-05-10T14:53:51.954Z,100.00
2023-05-10T14:56:19.596Z,100.00
2023-05-10T14:58:47.206Z,100.00
2023-05-10T15:01:14.890Z,100.00
2023-05-10T15:03:44.357Z,100.00
2023-05-10T15:06:12.849Z,100.00
2023-05-10T15:08:40.434Z,100.00
2023-05-10T15:11:08.040Z,100.00
2023-05-10T15:13:35.619Z,100.00
2023-05-10T15:16:03.260Z,100.00
2023-05-10T15:18:30.940Z,100.00
2023-05-10T15:20:59.848Z,100.00
2023-05-10T15:23:27.592Z,100.00
2023-05-10T15:25:56.656Z,100.00
2023-05-10T15:28:24.501Z,100.00
2023-05-10T15:30:52.181Z,100.00
2023-05-10T15:33:19.757Z,100.00
2023-05-10T15:35:47.348Z,100.00
2023-05-10T15:38:16.396Z,100.00
2023-05-10T15:40:43.990Z,100.00
2023-05-10T15:43:11.584Z,100.00
2023-05-10T15:45:39.198Z,100.00
2023-05-10T15:48:07.430Z,100.00
2023-05-10T15:50:35.118Z,100.00
2023-05-10T15:53:02.935Z,100.00
2023-05-10T15:55:32.283Z,100.00
2023-05-10T15:57:59.856Z,100.00
2023-05-10T16:00:27.664Z,100.00
2023-05-10T16:02:55.531Z,100.00
2023-05-10T16:05:23.300Z,100.00
2023-05-10T16:07:51.000Z,100.00
2023-05-10T16:10:18.681Z,100.00
2023-05-10T16:12:47.629Z,100.00
2023-05-10T16:15:15.431Z,100.00
2023-05-10T16:17:43.316Z,100.00
2023-05-10T16:20:11.359Z,100.00
2023-05-10T16:22:39.019Z,100.00
2023-05-10T16:25:07.541Z,100.00
2023-05-10T16:27:35.129Z,100.00
2023-05-10T16:30:04.178Z,100.00
2023-05-10T16:32:31.823Z,100.00
2023-05-10T16:35:00.101Z,100.00
2023-05-10T16:37:27.733Z,100.00
2023-05-10T16:39:55.311Z,100.00
2023-05-10T16:42:23.971Z,100.00
2023-05-10T16:44:51.571Z,100.00
2023-05-10T16:47:20.729Z,100.00
2023-05-10T16:49:48.339Z,100.00
2023-05-10T16:52:15.936Z,100.00
2023-05-10T16:54:43.561Z,100.00
2023-05-10T16:57:11.251Z,100.00
2023-05-10T16:59:39.211Z,100.00
2023-05-10T17:02:06.817Z,100.00
2023-05-10T17:04:35.975Z,100.00
2023-05-10T17:07:03.587Z,100.00
2023-05-10T17:09:31.230Z,100.00
2023-05-10T17:11:58.811Z,100.00
2023-05-10T17:14:26.384Z,100.00
2023-05-10T17:16:55.069Z,100.00
2023-05-10T17:19:24.777Z,100.00
2023-05-10T17:21:55.097Z,100.00
2023-05-10T17:24:22.722Z,100.00
2023-05-10T17:26:50.305Z,100.00
2023-05-10T17:29:17.988Z,100.00
2023-05-10T17:31:45.602Z,100.00
2023-05-10T17:34:13.178Z,100.00
2023-05-10T17:36:40.822Z,100.00
2023-05-10T17:39:10.024Z,100.00
2023-05-10T17:41:37.744Z,100.00
2023-05-10T17:44:05.383Z,100.00
2023-05-10T17:46:33.550Z,100.00
2023-05-10T17:49:01.185Z,100.00
2023-05-10T17:51:29.450Z,100.00
2023-05-10T17:53:57.079Z,100.00
2023-05-10T17:56:26.047Z,100.00
2023-05-10T17:58:53.662Z,100.00
2023-05-10T18:01:21.423Z,100.00
2023-05-10T18:03:51.823Z,100.00
2023-05-10T18:06:19.443Z,100.00
2023-05-10T18:08:47.064Z,100.00
2023-05-10T18:11:14.767Z,100.00
2023-05-10T18:13:43.673Z,100.00
2023-05-10T18:16:12.711Z,100.00
2023-05-10T18:18:40.739Z,100.00
2023-05-10T18:21:08.408Z,100.00
2023-05-10T18:23:36.139Z,100.00
2023-05-10T18:26:03.849Z,100.00
2023-05-10T18:28:31.506Z,100.00
2023-05-10T18:31:00.503Z,100.00
2023-05-10T18:33:28.188Z,100.00
2023-05-10T18:35:55.811Z,100.00
2023-05-10T18:38:23.510Z,100.00
2023-05-10T18:40:51.571Z,100.00
2023-05-10T18:43:19.235Z,100.00
2023-05-10T18:45:46.928Z,100.00
2023-05-10T18:48:15.932Z,100.00
2023-05-10T18:50:43.510Z,100.00
2023-05-10T18:53:11.120Z,100.00
2023-05-10T18:55:38.701Z,100.00
2023-05-10T18:58:06.310Z,100.00
2023-05-10T19:00:34.055Z,100.00
2023-05-10T19:03:01.728Z,100.00
2023-05-10T19:05:31.615Z,100.00
2023-05-10T19:07:59.237Z,100.00
2023-05-10T19:10:26.811Z,100.00
2023-05-10T19:12:54.408Z,100.00
2023-05-10T19:15:22.417Z,100.00
2023-05-10T19:17:50.994Z,100.00
2023-05-10T19:20:18.710Z,100.00
2023-05-10T19:23:02.034Z,100.00
2023-05-10T19:25:30.308Z,100.00
2023-05-10T19:27:58.492Z,100.00
2023-05-10T19:30:26.466Z,100.00
2023-05-10T19:32:54.273Z,100.00
2023-05-10T19:35:21.993Z,100.00
2023-05-10T19:37:50.963Z,100.00
2023-05-10T19:40:19.008Z,100.00
2023-05-10T19:42:46.632Z,100.00
2023-05-10T19:45:15.717Z,100.00
2023-05-10T19:47:43.815Z,100.00
2023-05-10T19:50:12.401Z,100.00
2023-05-10T19:52:40.250Z,100.00
2023-05-10T19:55:09.798Z,100.00
2023-05-10T19:57:37.435Z,100.00
2023-05-10T20:00:06.562Z,100.00
2023-05-10T20:02:34.195Z,100.00
2023-05-10T20:05:01.877Z,100.00
2023-05-10T20:07:30.205Z,100.00
2023-05-10T20:09:57.821Z,100.00
2023-05-10T20:12:27.302Z,100.00
2023-05-10T20:14:54.903Z,100.00
2023-05-10T20:17:22.596Z,100.00
2023-05-10T20:19:50.225Z,100.00
2023-05-10T20:22:18.245Z,100.00
2023-05-10T20:24:46.500Z,100.00
2023-05-10T20:27:14.333Z,100.00
2023-05-10T20:29:44.116Z,100.00
2023-05-10T20:32:11.765Z,100.00
2023-05-10T20:34:39.362Z,100.00
2023-05-10T20:37:07.117Z,100.00
2023-05-10T20:39:34.747Z,100.00
2023-05-10T20:42:02.386Z,100.00
2023-05-10T20:44:29.996Z,100.00
2023-05-10T20:46:59.012Z,100.00
2023-05-10T20:49:27.986Z,100.00
2023-05-10T20:51:55.768Z,100.00
2023-05-10T20:54:24.306Z,100.00
2023-05-10T20:56:52.084Z,100.00
2023-05-10T20:59:19.950Z,100.00
2023-05-10T21:01:47.647Z,100.00
2023-05-10T21:04:16.629Z,100.00
2023-05-10T21:06:44.732Z,100.00
2023-05-10T21:09:12.372Z,100.00
2023-05-10T21:11:39.998Z,100.00
2023-05-10T21:14:07.847Z,100.00
2023-05-10T21:16:35.639Z,100.00
2023-05-10T21:19:03.573Z,100.00
2023-05-10T21:21:32.605Z,100.00
2023-05-10T21:24:00.227Z,100.00
2023-05-10T21:26:27.837Z,100.00
2023-05-10T21:28:55.708Z,100.00
2023-05-10T21:31:23.422Z,100.00
2023-05-10T21:33:51.102Z,100.00
2023-05-10T21:36:18.742Z,100.00
2023-05-10T21:38:48.476Z,100.00
2023-05-10T21:41:16.126Z,100.00
2023-05-10T21:43:44.013Z,100.00
2023-05-10T21:46:13.105Z,100.00
2023-05-10T21:48:40.948Z,100.00
2023-05-10T21:51:08.581Z,100.00
2023-05-10T21:53:37.192Z,100.00
2023-05-10T21:56:07.194Z,100.00
2023-05-10T21:58:34.782Z,100.00
2023-05-10T22:01:02.546Z,100.00
2023-05-10T22:03:30.367Z,100.00
2023-05-10T22:05:58.016Z,100.00
2023-05-10T22:08:25.705Z,100.00
2023-05-10T22:10:53.329Z,100.00
2023-05-10T22:13:22.316Z,100.00
2023-05-10T22:15:50.132Z,100.00
2023-05-10T22:18:17.862Z,100.00
2023-05-10T22:20:46.452Z,100.00
2023-05-10T22:23:14.257Z,100.00
2023-05-10T22:25:41.905Z,100.00
2023-05-10T22:28:09.599Z,100.00
2023-05-10T22:30:38.646Z,100.00
2023-05-10T22:33:06.545Z,100.00
2023-05-10T22:35:34.279Z,100.00
2023-05-10T22:38:02.105Z,100.00
2023-05-10T22:40:29.710Z,100.00
2023-05-10T22:42:57.360Z,100.00
2023-05-10T22:45:25.046Z,100.00
2023-05-10T22:47:54.115Z,100.00
2023-05-10T22:50:22.172Z,100.00
2023-05-10T22:52:49.855Z,100.00
2023-05-10T22:55:17.841Z,100.00
2023-05-10T22:57:45.560Z,100.00
2023-05-10T23:00:14.134Z,100.00
2023-05-10T23:02:41.863Z,100.00
2023-05-10T23:05:11.205Z,100.00
2023-05-10T23:07:38.884Z,100.00
2023-05-10T23:10:07.628Z,100.00
2023-05-10T23:12:35.276Z,100.00
2023-05-10T23:15:02.887Z,100.00
2023-05-10T23:17:30.578Z,100.00
2023-05-10T23:19:58.196Z,100.00
2023-05-10T23:22:27.190Z,100.00
2023-05-10T23:24:54.777Z,100.00
2023-05-10T23:27:22.504Z,100.00
2023-05-10T23:29:52.281Z,100.00
2023-05-10T23:32:19.936Z,100.00
2023-05-10T23:34:47.543Z,100.00
2023-05-10T23:37:15.871Z,100.00
2023-05-10T23:39:44.838Z,100.00
2023-05-10T23:42:12.636Z,100.00
2023-05-10T23:44:40.250Z,100.00
2023-05-10T23:47:07.891Z,100.00
2023-05-10T23:49:35.506Z,100.00
2023-05-10T23:52:03.210Z,100.00
2023-05-10T23:54:30.967Z,100.00
2023-05-10T23:56:59.944Z,100.00
2023-05-10T23:59:27.797Z,100.00
